Terminal Aerodrome Forecast
Issued by NWS

Home | Current Version | Previous Version | Text Only | Print | Product List | Glossary On
Versions: 1 2 3 4 5 6 7 8 9 10 11 12 13 14 15 16 17 18
000
FTUS43 KICT 031345 AAA
TAFHUT
TAF AMD
KHUT 031345Z 0314/0412 35013KT 6SM HZ BKN006
     FM031530 35013KT P6SM SCT007 OVC013
     FM031700 36013KT P6SM OVC025
     FM031900 35013KT P6SM OVC035
     FM032100 03013KT P6SM SCT040=

USA.gov is the U.S. government's official web portal to all federal, state and local government web resources and services.